Time;durP1;ratioP1;P1;durP2;ratioP2;P2;SDS_P1;SDS_P2;PMS_P1;PMS_P2;Temp;Humidity;BMP_temperature;BMP_pressure;BME280_temperature;BME280_humidity;BME280_pressure;Samples;Min_cycle;Max_cycle;Signal;HPM_P1;HPM_P2
2022/03/08 00:02:20;;;;;;;162.25;139.85;;;;;;;-0.04;100.00;101219.03;4999656;28;20053;-80
2022/03/08 00:04:47;;;;;;;147.45;130.60;;;;;;;-0.09;100.00;101215.94;5007458;28;20051;-82
2022/03/08 00:07:13;;;;;;;148.68;124.32;;;;;;;-0.05;100.00;101220.81;5004167;28;20054;-79
2022/03/08 00:09:43;;;;;;;148.55;121.03;;;;;;;-0.12;100.00;101224.88;5005980;28;20042;-79
2022/03/08 00:12:11;;;;;;;156.85;139.75;;;;;;;-0.01;100.00;101219.59;5008595;28;20490;-82
2022/03/08 00:14:38;;;;;;;158.02;142.27;;;;;;;0.02;100.00;101212.47;5000177;28;20109;-79
2022/03/08 00:17:05;;;;;;;158.52;138.73;;;;;;;0.01;100.00;101206.44;5009573;28;20054;-78
2022/03/08 00:19:32;;;;;;;144.95;123.57;;;;;;;-0.07;100.00;101214.06;5008895;28;20140;-82
2022/03/08 00:21:58;;;;;;;135.98;117.97;;;;;;;-0.15;100.00;101206.00;5012000;28;20120;-81
2022/03/08 00:24:25;;;;;;;134.27;119.78;;;;;;;-0.16;100.00;101215.63;5005639;28;20050;-79
2022/03/08 00:27:09;;;;;;;140.85;125.75;;;;;;;0.04;100.00;101219.25;5002558;28;20050;-80
2022/03/08 00:29:35;;;;;;;169.38;151.38;;;;;;;-0.03;100.00;101211.09;5004466;28;20050;-79
2022/03/08 00:32:02;;;;;;;165.85;144.38;;;;;;;-0.04;100.00;101205.97;4997997;28;20098;-82
2022/03/08 00:34:29;;;;;;;167.55;149.88;;;;;;;-0.07;100.00;101207.03;5007276;28;20116;-79
2022/03/08 00:36:56;;;;;;;166.15;149.43;;;;;;;-0.09;100.00;101208.97;5007574;28;20050;-78
2022/03/08 00:39:23;;;;;;;167.32;151.07;;;;;;;-0.13;100.00;101209.34;5013266;28;20057;-79
2022/03/08 00:41:50;;;;;;;145.93;130.60;;;;;;;-0.37;100.00;101199.91;5001454;28;20042;-78
2022/03/08 00:44:18;;;;;;;131.38;113.70;;;;;;;-0.35;100.00;101194.56;5014931;28;20125;-79
2022/03/08 00:46:45;;;;;;;137.75;122.60;;;;;;;-0.35;100.00;101195.41;5012729;28;20380;-79
2022/03/08 00:49:12;;;;;;;141.23;126.22;;;;;;;-0.29;100.00;101191.47;5001346;28;20054;-82
2022/03/08 00:51:39;;;;;;;146.15;131.20;;;;;;;-0.37;100.00;101189.47;5010375;28;20058;-79
2022/03/08 00:54:06;;;;;;;147.77;132.95;;;;;;;-0.46;100.00;101193.63;5005339;28;20045;-79
2022/03/08 00:56:33;;;;;;;146.85;131.45;;;;;;;-0.42;100.00;101193.38;5006904;28;20437;-80
2022/03/08 00:59:00;;;;;;;142.07;126.85;;;;;;;-0.35;100.00;101192.78;5007136;28;20111;-83
2022/03/08 01:01:28;;;;;;;139.07;123.00;;;;;;;-0.30;100.00;101195.03;5003471;28;20051;-82
2022/03/08 01:03:56;;;;;;;159.18;143.05;;;;;;;-0.26;100.00;101184.22;5008054;28;20050;-80
2022/03/08 01:06:22;;;;;;;140.40;125.65;;;;;;;-0.17;100.00;101185.25;5006002;28;20533;-78
2022/03/08 01:08:49;;;;;;;154.70;137.65;;;;;;;-0.35;100.00;101184.97;5012809;28;20053;-78
2022/03/08 01:11:16;;;;;;;145.20;129.38;;;;;;;-0.25;100.00;101185.03;5010496;28;20049;-79
2022/03/08 01:13:44;;;;;;;156.30;139.30;;;;;;;-0.15;100.00;101191.19;5004737;28;20096;-79
2022/03/08 01:16:11;;;;;;;156.88;138.93;;;;;;;-0.12;100.00;101190.94;5010940;28;20120;-79
2022/03/08 01:18:39;;;;;;;149.82;124.35;;;;;;;-0.14;100.00;101194.63;5008866;28;20113;-82
2022/03/08 01:21:06;;;;;;;216.60;167.27;;;;;;;-0.10;100.00;101190.81;5008021;28;20049;-79
2022/03/08 01:23:33;;;;;;;160.40;143.45;;;;;;;-0.38;100.00;101182.59;5003456;28;20058;-80
2022/03/08 01:26:00;;;;;;;155.77;138.82;;;;;;;-0.23;100.00;101188.38;5008262;28;20050;-80
2022/03/08 01:28:27;;;;;;;149.88;133.40;;;;;;;-0.14;100.00;101184.19;5005625;28;20042;-80
2022/03/08 01:30:54;;;;;;;200.38;155.68;;;;;;;-0.12;100.00;101177.03;5015034;28;20054;-78
2022/03/08 01:33:21;;;;;;;161.50;143.70;;;;;;;-0.21;100.00;101191.69;5012961;28;20525;-82
2022/03/08 01:35:49;;;;;;;209.65;146.23;;;;;;;-0.05;100.00;101188.66;5011520;28;20046;-79
2022/03/08 01:38:17;;;;;;;167.20;133.23;;;;;;;-0.07;100.00;101195.78;5012077;28;20121;-79
2022/03/08 01:40:44;;;;;;;182.88;139.63;;;;;;;-0.04;100.00;101191.13;5004179;28;20127;-82
2022/03/08 01:43:11;;;;;;;163.45;143.50;;;;;;;-0.15;100.00;101182.50;5008120;28;20062;-82
2022/03/08 01:45:38;;;;;;;294.35;185.90;;;;;;;-0.18;100.00;101182.75;5005677;28;20509;-82
2022/03/08 01:48:05;;;;;;;232.68;160.00;;;;;;;-0.06;100.00;101184.38;5010307;28;20046;-81
2022/03/08 01:50:32;;;;;;;162.32;131.90;;;;;;;-0.21;100.00;101191.69;5004246;28;20058;-80
2022/03/08 01:53:00;;;;;;;162.40;137.65;;;;;;;-0.13;100.00;101183.22;5010519;28;20049;-79
2022/03/08 01:55:27;;;;;;;191.18;144.48;;;;;;;-0.18;100.00;101186.22;5010276;28;20050;-79
2022/03/08 01:57:54;;;;;;;183.30;155.05;;;;;;;-0.15;100.00;101185.13;5008957;28;20053;-79
2022/03/08 02:00:24;;;;;;;150.55;131.32;;;;;;;-0.15;100.00;101183.34;5013283;28;20132;-82
2022/03/08 02:02:52;;;;;;;157.80;129.98;;;;;;;-0.13;100.00;101186.66;5004726;28;20137;-80
2022/03/08 02:05:18;;;;;;;169.30;138.68;;;;;;;-0.12;100.00;101182.25;5011087;28;20042;-79
2022/03/08 02:07:45;;;;;;;215.80;167.75;;;;;;;-0.15;100.00;101187.72;5013212;28;20046;-81
2022/03/08 02:10:14;;;;;;;178.23;136.85;;;;;;;-0.20;100.00;101184.69;5012591;28;20046;-80
2022/03/08 02:12:40;;;;;;;139.02;110.80;;;;;;;-0.30;100.00;101179.38;5005490;28;20062;-80
2022/03/08 02:15:16;;;;;;;163.55;119.93;;;;;;;-0.25;100.00;101187.66;5016670;28;20383;-81
2022/03/08 02:17:43;;;;;;;167.13;135.68;;;;;;;-0.28;100.00;101180.06;5007937;28;20050;-80
2022/03/08 02:20:11;;;;;;;169.68;150.77;;;;;;;-0.18;100.00;101186.22;5009669;28;20494;-82
2022/03/08 02:22:42;;;;;;;167.65;136.50;;;;;;;-0.20;100.00;101187.28;5019032;28;20049;-80
2022/03/08 02:25:09;;;;;;;222.30;159.95;;;;;;;-0.29;100.00;101183.63;5008185;28;20470;-83
2022/03/08 02:27:41;;;;;;;171.07;142.35;;;;;;;-0.19;100.00;101184.53;5008416;28;20046;-83
2022/03/08 02:30:09;;;;;;;160.07;132.70;;;;;;;-0.41;100.00;101195.06;5009222;28;20054;-81
2022/03/08 02:32:35;;;;;;;159.93;131.88;;;;;;;-0.30;100.00;101189.81;5018484;28;20061;-82
2022/03/08 02:38:25;;;;;;;148.10;128.02;;;;;;;-0.19;100.00;101191.53;5007793;28;20423;-80
2022/03/08 02:40:52;;;;;;;149.02;122.85;;;;;;;-0.15;100.00;101185.13;5007888;28;20045;-79
2022/03/08 02:43:19;;;;;;;144.48;124.82;;;;;;;-0.18;100.00;101195.81;5009621;28;20061;-81
2022/03/08 02:45:46;;;;;;;159.85;143.18;;;;;;;-0.16;100.00;101191.31;5016775;28;20050;-78
2022/03/08 02:48:13;;;;;;;145.15;130.15;;;;;;;-0.17;100.00;101189.66;5007944;28;20120;-79
2022/03/08 02:50:39;;;;;;;180.05;127.65;;;;;;;-0.19;100.00;101197.59;5010402;28;20046;-80
2022/03/08 02:53:08;;;;;;;150.57;126.60;;;;;;;-0.18;100.00;101183.59;5016385;28;20104;-79
2022/03/08 02:55:37;;;;;;;144.65;125.47;;;;;;;-0.21;100.00;101185.63;5009050;28;20050;-83
2022/03/08 02:58:05;;;;;;;164.07;128.98;;;;;;;-0.15;100.00;101185.13;5004250;28;20088;-79
2022/03/08 03:03:07;;;;;;;475.55;250.60;;;;;;;-0.19;100.00;101179.31;5011700;28;20061;-80
2022/03/08 03:05:36;;;;;;;331.90;189.98;;;;;;;-0.25;100.00;101185.88;5014078;28;20054;-81
2022/03/08 03:08:04;;;;;;;257.30;157.18;;;;;;;-0.21;100.00;101188.22;5017683;28;20115;-79
2022/03/08 03:10:31;;;;;;;218.18;171.95;;;;;;;-0.24;100.00;101184.94;5016667;28;20057;-79
2022/03/08 03:13:00;;;;;;;229.20;186.55;;;;;;;-0.26;100.00;101188.63;5021111;28;20114;-79
2022/03/08 03:15:29;;;;;;;187.35;147.32;;;;;;;-0.35;100.00;101192.78;5017537;28;20053;-79
2022/03/08 03:17:56;;;;;;;214.90;149.55;;;;;;;-0.26;100.00;101191.22;5015955;28;20054;-79
2022/03/08 03:20:26;;;;;;;228.27;160.77;;;;;;;-0.31;100.00;101195.97;5017808;28;20174;-80
2022/03/08 03:22:52;;;;;;;293.83;180.70;;;;;;;-0.27;100.00;101200.03;5017804;28;20058;-81
2022/03/08 03:25:20;;;;;;;282.52;174.13;;;;;;;-0.28;100.00;101193.13;5017506;28;20095;-79
2022/03/08 03:27:47;;;;;;;296.33;174.27;;;;;;;-0.29;100.00;101202.72;5016305;28;20115;-82
2022/03/08 03:30:18;;;;;;;198.38;144.75;;;;;;;-0.19;100.00;101199.38;5016929;28;20046;-80
2022/03/08 03:32:45;;;;;;;254.75;164.88;;;;;;;-0.18;100.00;101201.03;5018645;28;20061;-79
2022/03/08 03:35:12;;;;;;;164.75;130.90;;;;;;;-0.28;100.00;101206.16;5016283;28;20474;-78
2022/03/08 03:37:39;;;;;;;164.00;132.65;;;;;;;-0.28;100.00;101203.56;5017585;28;20141;-83
2022/03/08 03:40:08;;;;;;;317.17;206.43;;;;;;;-0.26;100.00;101199.88;5017116;28;20058;-79
2022/03/08 03:42:35;;;;;;;146.10;125.85;;;;;;;-0.21;100.00;101204.75;5019435;28;20050;-80
2022/03/08 03:45:03;;;;;;;165.65;135.25;;;;;;;-0.23;100.00;101196.19;5015795;28;20046;-83
2022/03/08 03:47:31;;;;;;;151.60;132.55;;;;;;;-0.19;100.00;101204.59;5017169;28;20050;-82
2022/03/08 03:49:57;;;;;;;141.63;126.50;;;;;;;-0.30;100.00;101192.44;5018911;28;20045;-83
2022/03/08 03:52:24;;;;;;;141.30;126.57;;;;;;;-0.20;100.00;101198.56;5018384;28;20045;-83
2022/03/08 03:54:51;;;;;;;144.32;129.50;;;;;;;-0.28;100.00;101201.78;5016430;28;20475;-79
2022/03/08 03:57:18;;;;;;;140.18;125.22;;;;;;;-0.22;100.00;101208.28;5018477;28;20081;-83
2022/03/08 03:59:45;;;;;;;168.82;150.32;;;;;;;-0.22;100.00;101204.84;5015722;28;20060;-80
2022/03/08 04:02:11;;;;;;;173.13;152.68;;;;;;;-0.25;100.00;101209.34;5014477;28;20490;-82
2022/03/08 04:04:40;;;;;;;165.10;146.23;;;;;;;-0.10;100.00;101216.91;5016953;28;20470;-81
2022/03/08 04:07:06;;;;;;;165.52;140.60;;;;;;;-0.02;100.00;101219.75;5018181;28;20050;-79
2022/03/08 04:09:33;;;;;;;142.32;120.80;;;;;;;-0.21;100.00;101211.72;5017371;28;20120;-79
2022/03/08 04:12:00;;;;;;;153.85;125.10;;;;;;;-0.28;100.00;101220.03;5018276;28;20050;-79
2022/03/08 04:14:26;;;;;;;147.40;132.00;;;;;;;-0.25;100.00;101217.19;5016976;28;20080;-83
2022/03/08 04:16:53;;;;;;;121.22;101.00;;;;;;;-0.23;100.00;101222.31;5018820;28;20057;-80
2022/03/08 04:19:20;;;;;;;123.03;109.20;;;;;;;-0.04;100.00;101214.63;5017486;28;20124;-83
2022/03/08 04:21:48;;;;;;;142.25;127.63;;;;;;;0.06;100.00;101217.34;5017694;28;20058;-83
2022/03/08 04:24:15;;;;;;;152.82;137.43;;;;;;;-0.06;100.00;101213.94;5018721;28;20058;-83
2022/03/08 04:26:42;;;;;;;139.80;125.07;;;;;;;0.00;100.00;101217.84;5017453;28;20088;-80
2022/03/08 04:29:09;;;;;;;137.63;122.32;;;;;;;-0.17;100.00;101215.75;5015505;28;20080;-79
2022/03/08 04:31:35;;;;;;;148.52;132.93;;;;;;;-0.12;100.00;101213.59;5018592;28;20065;-81
2022/03/08 04:34:02;;;;;;;133.98;119.90;;;;;;;-0.16;100.00;101218.22;5017525;28;20065;-80
2022/03/08 04:36:29;;;;;;;177.43;141.30;;;;;;;-0.07;100.00;101209.66;5016584;28;20061;-80
2022/03/08 04:38:57;;;;;;;192.75;160.73;;;;;;;-0.11;100.00;101215.25;5017378;28;20367;-83
2022/03/08 04:41:24;;;;;;;199.93;160.77;;;;;;;-0.32;100.00;101212.59;5017393;28;20131;-79
2022/03/08 04:43:51;;;;;;;157.57;139.40;;;;;;;-0.28;100.00;101211.38;5017158;28;20410;-83
2022/03/08 04:46:18;;;;;;;135.05;117.85;;;;;;;-0.22;100.00;101221.34;5017393;28;20045;-82
2022/03/08 04:48:46;;;;;;;143.10;128.93;;;;;;;-0.24;100.00;101215.44;5017819;28;20058;-80
2022/03/08 04:51:12;;;;;;;142.13;128.02;;;;;;;-0.05;100.00;101222.59;5015878;28;20671;-82
2022/03/08 04:53:40;;;;;;;149.43;133.20;;;;;;;-0.09;100.00;101227.25;5015410;28;20046;-81
2022/03/08 04:56:08;;;;;;;146.32;129.25;;;;;;;-0.15;100.00;101216.44;5015943;28;20133;-83
2022/03/08 04:58:35;;;;;;;122.63;109.60;;;;;;;-0.37;100.00;101219.97;5007796;28;20050;-83
2022/03/08 05:01:01;;;;;;;121.13;107.82;;;;;;;-0.32;100.00;101217.81;5017688;28;20120;-79
2022/03/08 05:03:28;;;;;;;121.20;106.30;;;;;;;-0.28;100.00;101229.66;5013765;28;20061;-81
2022/03/08 05:05:57;;;;;;;121.97;106.30;;;;;;;-0.04;100.00;101225.06;5014118;28;20111;-83
2022/03/08 05:08:24;;;;;;;114.72;99.63;;;;;;;-0.02;100.00;101232.81;5021197;28;20493;-81
2022/03/08 05:10:50;;;;;;;114.82;99.47;;;;;;;-0.01;100.00;101234.44;5020654;28;20057;-79
2022/03/08 05:13:18;;;;;;;107.60;96.18;;;;;;;0.05;100.00;101230.50;5022401;28;20049;-81
2022/03/08 05:15:48;;;;;;;178.68;136.35;;;;;;;-0.03;100.00;101237.19;5021564;28;20115;-82
2022/03/08 05:18:15;;;;;;;170.90;130.98;;;;;;;-0.03;100.00;101239.81;5023038;28;20394;-82
2022/03/08 05:20:42;;;;;;;134.95;110.90;;;;;;;0.03;100.00;101235.03;5023074;28;20054;-81
2022/03/08 05:23:09;;;;;;;170.35;138.43;;;;;;;-0.01;100.00;101234.44;5022126;28;20386;-79
2022/03/08 05:25:36;;;;;;;195.23;140.73;;;;;;;0.04;100.00;101234.09;5020484;28;20045;-79
2022/03/08 05:28:03;;;;;;;213.40;155.10;;;;;;;0.00;100.00;101241.34;5023071;28;20440;-82
2022/03/08 05:30:31;;;;;;;198.25;158.95;;;;;;;-0.02;100.00;101244.06;5024176;28;20532;-79
2022/03/08 05:32:58;;;;;;;229.35;195.20;;;;;;;-0.20;100.00;101239.50;5021517;28;20076;-80
2022/03/08 05:35:24;;;;;;;214.55;182.05;;;;;;;-0.21;100.00;101245.66;5021403;28;20041;-79
2022/03/08 05:37:52;;;;;;;200.55;158.13;;;;;;;-0.06;100.00;101241.81;5025018;28;20123;-81
2022/03/08 05:40:22;;;;;;;148.25;122.30;;;;;;;-0.25;100.00;101255.53;5023490;28;20076;-79
2022/03/08 05:42:49;;;;;;;208.98;161.20;;;;;;;-0.30;100.00;101249.88;5022631;28;20493;-79
2022/03/08 05:45:16;;;;;;;207.55;160.65;;;;;;;-0.39;100.00;101255.78;5025151;28;20064;-84
2022/03/08 05:47:44;;;;;;;197.73;157.63;;;;;;;-0.29;100.00;101254.13;5022828;28;20046;-83
2022/03/08 05:50:13;;;;;;;176.60;134.57;;;;;;;-0.38;100.00;101257.47;5022536;28;20063;-80
2022/03/08 05:52:40;;;;;;;174.65;138.13;;;;;;;-0.25;100.00;101256.34;5025533;28;20042;-83
2022/03/08 05:55:08;;;;;;;190.52;140.43;;;;;;;-0.36;100.00;101261.63;5022198;28;20053;-83
2022/03/08 05:57:35;;;;;;;176.30;127.43;;;;;;;-0.39;100.00;101264.47;5023191;28;20053;-84
2022/03/08 06:00:03;;;;;;;201.48;143.40;;;;;;;-0.62;100.00;101265.44;5024041;28;20045;-83
2022/03/08 06:02:29;;;;;;;202.52;142.70;;;;;;;-0.51;100.00;101268.88;5021576;28;20478;-80
2022/03/08 06:04:59;;;;;;;163.50;122.97;;;;;;;-0.61;100.00;101277.53;5024158;28;20050;-79
2022/03/08 06:07:30;;;;;;;220.73;148.27;;;;;;;-0.53;100.00;101272.53;5024252;28;20054;-83
2022/03/08 06:09:57;;;;;;;180.38;132.98;;;;;;;-0.61;100.00;101283.56;5022801;28;20121;-79
2022/03/08 06:12:26;;;;;;;182.80;132.30;;;;;;;-0.59;100.00;101276.47;5023704;28;20047;-79
2022/03/08 06:14:53;;;;;;;205.07;141.45;;;;;;;-0.65;100.00;101286.56;5023706;28;20111;-80
2022/03/08 06:17:20;;;;;;;196.90;134.38;;;;;;;-0.63;100.00;101285.50;5023246;28;20560;-79
2022/03/08 06:19:47;;;;;;;181.65;136.30;;;;;;;-0.68;100.00;101282.41;5016540;28;20441;-79
2022/03/08 06:22:15;;;;;;;214.15;139.27;;;;;;;-0.62;100.00;101289.75;5020165;28;20053;-79
2022/03/08 06:24:42;;;;;;;207.57;131.63;;;;;;;-0.54;100.00;101289.16;5017855;28;20107;-82
2022/03/08 06:27:09;;;;;;;154.55;115.82;;;;;;;-0.45;100.00;101296.28;5019020;28;20453;-81
2022/03/08 06:29:36;;;;;;;172.45;125.18;;;;;;;-0.66;100.00;101296.16;5018171;28;20046;-83
2022/03/08 06:32:03;;;;;;;195.98;137.55;;;;;;;-0.61;100.00;101296.63;5018694;28;20434;-82
2022/03/08 06:34:29;;;;;;;183.88;141.25;;;;;;;-0.67;100.00;101294.47;5016682;28;20050;-80
2022/03/08 06:37:16;;;;;;;190.13;145.27;;;;;;;-0.61;100.00;101286.19;5016167;28;20057;-83
2022/03/08 06:39:44;;;;;;;175.52;132.40;;;;;;;-0.69;100.00;101293.78;5014263;28;20556;-81
2022/03/08 06:42:10;;;;;;;221.98;160.07;;;;;;;-0.71;100.00;101291.28;5014861;28;20108;-80
2022/03/08 06:44:38;;;;;;;230.02;151.15;;;;;;;-0.62;100.00;101297.56;5017629;28;20115;-83
2022/03/08 06:47:06;;;;;;;183.57;135.15;;;;;;;-0.57;100.00;101292.84;5015594;28;20548;-79
2022/03/08 06:49:33;;;;;;;204.13;144.57;;;;;;;-0.57;100.00;101286.78;5017804;28;20426;-82
2022/03/08 06:52:00;;;;;;;207.52;143.00;;;;;;;-0.43;100.00;101303.97;5016186;28;20046;-80
2022/03/08 06:54:29;;;;;;;189.98;138.13;;;;;;;3.29;100.00;101303.34;5018035;28;20042;-80
2022/03/08 06:56:56;;;;;;;151.52;124.47;;;;;;;3.23;100.00;101311.78;5016498;28;20046;-81
2022/03/08 06:59:23;;;;;;;159.15;124.78;;;;;;;1.21;100.00;101298.41;5016279;28;20502;-80
2022/03/08 07:01:50;;;;;;;135.77;103.72;;;;;;;-0.25;100.00;101300.75;5016446;28;20199;-80
2022/03/08 07:04:18;;;;;;;181.13;129.00;;;;;;;-0.21;100.00;101300.50;5016740;28;20049;-78
2022/03/08 07:06:45;;;;;;;211.48;144.85;;;;;;;-0.18;100.00;101300.25;5016042;28;20077;-80
2022/03/08 07:09:11;;;;;;;184.15;128.35;;;;;;;-0.30;100.00;101291.63;5016285;28;20111;-80
2022/03/08 07:11:40;;;;;;;190.07;136.15;;;;;;;-0.22;100.00;101301.44;5016396;28;20540;-79
2022/03/08 07:14:07;;;;;;;188.02;135.30;;;;;;;-0.11;100.00;101298.84;5016220;28;20473;-78
2022/03/08 07:16:34;;;;;;;213.10;158.25;;;;;;;-0.06;100.00;101304.50;5015956;28;20050;-80
2022/03/08 07:19:01;;;;;;;199.57;153.18;;;;;;;-0.12;100.00;101304.97;5015569;28;20060;-80
2022/03/08 07:21:28;;;;;;;199.77;144.45;;;;;;;0.07;100.00;101297.34;5014998;28;20050;-78
2022/03/08 07:23:55;;;;;;;235.43;182.10;;;;;;;0.23;100.00;101303.00;5016477;28;20453;-80
2022/03/08 07:26:22;;;;;;;232.10;181.10;;;;;;;0.17;100.00;101300.88;5015536;28;20042;-78
2022/03/08 07:28:50;;;;;;;233.95;181.50;;;;;;;0.31;100.00;101305.00;5015637;28;20586;-81
2022/03/08 07:31:17;;;;;;;225.68;176.65;;;;;;;0.26;100.00;101306.31;5015253;28;20457;-78
2022/03/08 07:33:43;;;;;;;241.77;187.32;;;;;;;0.44;100.00;101297.78;5017300;28;20057;-79
2022/03/08 07:36:10;;;;;;;184.95;152.88;;;;;;;0.27;100.00;101300.94;5016130;28;20050;-78
2022/03/08 07:38:37;;;;;;;189.13;149.07;;;;;;;0.03;100.00;101295.94;5015618;28;20119;-80
2022/03/08 07:41:05;;;;;;;190.90;147.68;;;;;;;0.20;100.00;101318.91;5015492;28;20453;-78
2022/03/08 07:43:32;;;;;;;227.10;177.57;;;;;;;0.20;100.00;101305.84;5016224;28;20474;-80
2022/03/08 07:46:00;;;;;;;179.23;148.95;;;;;;;0.20;100.00;101298.00;5015929;28;20042;-80
2022/03/08 07:48:26;;;;;;;192.90;152.85;;;;;;;0.31;100.00;101296.34;5015241;28;20054;-80
2022/03/08 07:50:53;;;;;;;197.25;152.95;;;;;;;0.31;100.00;101304.16;5016536;28;20042;-81
2022/03/08 07:53:20;;;;;;;210.70;164.90;;;;;;;0.45;100.00;101304.69;5015227;28;20119;-80
2022/03/08 07:55:47;;;;;;;193.60;155.00;;;;;;;0.53;100.00;101303.22;5014129;28;20142;-78
2022/03/08 07:58:15;;;;;;;185.93;149.85;;;;;;;0.38;100.00;101300.09;5014933;28;20490;-80
2022/03/08 08:00:42;;;;;;;184.40;152.45;;;;;;;0.39;100.00;101294.75;5015816;28;20057;-80
2022/03/08 08:03:10;;;;;;;178.90;143.82;;;;;;;0.52;100.00;101305.03;5012673;28;20060;-79
2022/03/08 08:05:38;;;;;;;176.88;144.73;;;;;;;0.43;100.00;101304.00;5014747;28;20042;-79
2022/03/08 08:08:06;;;;;;;207.52;145.63;;;;;;;0.56;100.00;101301.19;5013493;28;20492;-78
2022/03/08 08:10:34;;;;;;;201.77;136.55;;;;;;;0.77;100.00;101314.28;5013561;28;20450;-80
2022/03/08 08:13:01;;;;;;;237.77;164.30;;;;;;;0.76;100.00;101298.72;5015699;28;20557;-78
2022/03/08 08:15:28;;;;;;;173.70;133.57;;;;;;;0.44;100.00;101305.63;5015015;28;20054;-78
2022/03/08 08:17:55;;;;;;;161.27;134.05;;;;;;;0.49;100.00;101301.84;5015025;28;20053;-79
2022/03/08 08:20:23;;;;;;;172.13;136.63;;;;;;;0.72;100.00;101308.59;5015024;28;20368;-79
2022/03/08 08:22:50;;;;;;;165.25;133.00;;;;;;;0.46;100.00;101300.31;5011939;28;20050;-80
2022/03/08 08:25:17;;;;;;;166.25;137.32;;;;;;;0.57;100.00;101307.25;5015988;28;20216;-80
2022/03/08 08:27:44;;;;;;;167.55;127.32;;;;;;;0.54;100.00;101304.88;5014972;28;20136;-80
2022/03/08 08:30:12;;;;;;;143.75;117.93;;;;;;;0.41;100.00;101305.06;5015153;28;20512;-79
2022/03/08 08:32:39;;;;;;;160.80;135.18;;;;;;;0.58;100.00;101307.13;5014411;28;20038;-78
2022/03/08 08:35:06;;;;;;;176.70;144.27;;;;;;;0.55;100.00;101299.53;5009315;28;20049;-78
2022/03/08 08:37:35;;;;;;;163.70;141.65;;;;;;;0.79;100.00;101301.09;5010404;28;20425;-79
2022/03/08 08:40:02;;;;;;;165.80;141.32;;;;;;;0.68;100.00;101300.19;5015068;28;20054;-80
2022/03/08 08:42:29;;;;;;;172.45;137.55;;;;;;;0.67;100.00;101308.16;5012537;28;20054;-79
2022/03/08 08:44:56;;;;;;;165.20;138.65;;;;;;;0.88;100.00;101295.09;5015187;28;20046;-78
2022/03/08 08:47:23;;;;;;;155.05;132.25;;;;;;;0.45;100.00;101301.25;5016752;28;20057;-79
2022/03/08 08:49:50;;;;;;;144.18;122.75;;;;;;;0.55;100.00;101298.72;5017312;28;20049;-80
2022/03/08 08:52:16;;;;;;;156.20;133.40;;;;;;;0.60;100.00;101302.59;5015477;28;20046;-79
2022/03/08 08:54:47;;;;;;;160.27;131.13;;;;;;;0.61;100.00;101290.38;5015924;28;20050;-80
2022/03/08 08:57:14;;;;;;;158.57;132.10;;;;;;;0.52;100.00;101301.59;5018331;28;20054;-80
2022/03/08 08:59:40;;;;;;;164.75;140.70;;;;;;;0.71;100.00;101295.66;5016195;28;20112;-79
2022/03/08 09:02:08;;;;;;;167.10;131.52;;;;;;;1.06;100.00;101292.69;5016182;28;20054;-80
2022/03/08 09:04:35;;;;;;;164.07;132.15;;;;;;;0.82;100.00;101296.44;5016608;28;20136;-80
2022/03/08 09:07:10;;;;;;;155.88;129.55;;;;;;;0.84;100.00;101301.50;5015966;28;20061;-79
2022/03/08 09:09:37;;;;;;;169.88;132.98;;;;;;;1.03;100.00;101285.09;5015352;28;20100;-79
2022/03/08 09:12:06;;;;;;;184.40;142.02;;;;;;;1.18;100.00;101291.66;5015580;28;20127;-79
2022/03/08 09:14:33;;;;;;;153.38;128.13;;;;;;;1.06;100.00;101290.06;5006828;28;20085;-79
2022/03/08 09:17:00;;;;;;;159.43;132.35;;;;;;;1.14;100.00;101292.88;5016234;28;20486;-79
2022/03/08 09:19:27;;;;;;;168.52;137.45;;;;;;;1.20;100.00;101287.09;5015302;28;20437;-78
2022/03/08 09:21:55;;;;;;;161.60;131.82;;;;;;;1.28;100.00;101292.53;5015965;28;20108;-79
2022/03/08 09:24:22;;;;;;;154.50;123.57;;;;;;;0.97;100.00;101285.59;5015753;28;20112;-79
2022/03/08 09:26:48;;;;;;;184.30;137.38;;;;;;;1.45;100.00;101285.00;5015425;28;20453;-80
2022/03/08 09:29:17;;;;;;;168.27;136.23;;;;;;;1.66;100.00;101283.13;5014977;28;20466;-80
2022/03/08 09:31:44;;;;;;;134.77;115.53;;;;;;;1.27;100.00;101292.66;5016483;28;20054;-82
2022/03/08 09:34:12;;;;;;;164.15;129.05;;;;;;;1.75;100.00;101289.38;5016480;28;20085;-78
2022/03/08 09:36:39;;;;;;;160.10;129.85;;;;;;;1.66;100.00;101287.56;5016014;28;20061;-81
2022/03/08 09:39:07;;;;;;;175.73;141.00;;;;;;;1.81;100.00;101294.88;5017312;28;20108;-79
2022/03/08 09:41:34;;;;;;;152.40;131.15;;;;;;;1.42;100.00;101293.94;5014367;28;20116;-78
2022/03/08 09:44:01;;;;;;;154.70;132.32;;;;;;;1.69;100.00;101293.34;5015968;28;20050;-80
2022/03/08 09:46:29;;;;;;;161.57;132.38;;;;;;;2.02;100.00;101291.34;5015100;28;20080;-80
2022/03/08 09:48:56;;;;;;;152.27;124.97;;;;;;;1.77;100.00;101296.13;5016025;28;20116;-78
2022/03/08 09:51:23;;;;;;;140.52;121.28;;;;;;;1.74;100.00;101285.09;5015718;28;20492;-80
2022/03/08 09:53:53;;;;;;;149.77;127.03;;;;;;;1.94;100.00;101291.22;5016474;28;20456;-79
2022/03/08 09:56:20;;;;;;;148.85;121.53;;;;;;;1.79;100.00;101290.78;5019613;28;20140;-80
2022/03/08 09:58:47;;;;;;;156.13;138.20;;;;;;;1.87;100.00;101295.31;5019579;28;20562;-80
2022/03/08 10:01:13;;;;;;;151.73;128.35;;;;;;;1.91;100.00;101296.72;5012137;28;20108;-80
2022/03/08 10:03:57;;;;;;;146.00;115.80;;;;;;;1.85;100.00;101300.72;5017360;28;20050;-80
2022/03/08 10:06:38;;;;;;;175.75;142.90;;;;;;;1.81;100.00;101294.88;5019227;28;20108;-80
2022/03/08 10:09:11;;;;;;;171.40;141.68;;;;;;;1.60;100.00;101294.16;5019173;28;20429;-80
2022/03/08 10:11:39;;;;;;;157.40;126.03;;;;;;;1.64;100.00;101289.50;5019372;28;20145;-78
2022/03/08 10:14:05;;;;;;;142.02;116.57;;;;;;;1.70;100.00;101295.03;5019672;28;20143;-79
2022/03/08 10:16:42;;;;;;;165.80;130.05;;;;;;;1.68;100.00;101296.94;5017041;28;20050;-79
2022/03/08 10:19:11;;;;;;;142.40;116.40;;;;;;;1.61;100.00;101298.44;5019229;28;20049;-79
2022/03/08 10:21:39;;;;;;;151.50;118.10;;;;;;;1.66;100.00;101298.84;5014258;28;20064;-80
2022/03/08 10:24:13;;;;;;;142.90;111.00;;;;;;;1.51;100.00;101295.78;5019318;28;20057;-79
2022/03/08 10:26:46;;;;;;;142.57;117.63;;;;;;;1.82;100.00;101303.59;5018667;28;20133;-78
2022/03/08 10:29:13;;;;;;;129.43;111.60;;;;;;;1.40;100.00;101308.16;5017359;28;20116;-81
2022/03/08 10:31:40;;;;;;;128.60;114.25;;;;;;;1.68;100.00;101302.16;5019811;28;20057;-79
2022/03/08 10:34:09;;;;;;;125.28;99.15;;;;;;;1.64;100.00;101300.78;5019849;28;20108;-78
2022/03/08 10:36:37;;;;;;;124.45;104.32;;;;;;;1.64;100.00;101299.97;5018169;28;20046;-80
2022/03/08 10:39:07;;;;;;;139.23;115.78;;;;;;;1.83;100.00;101308.69;5020191;28;20223;-80
2022/03/08 10:41:33;;;;;;;147.93;125.13;;;;;;;2.04;100.00;101307.78;5018386;28;20053;-80
2022/03/08 10:44:00;;;;;;;154.48;127.18;;;;;;;1.96;100.00;101303.19;5018961;28;20053;-78
2022/03/08 10:46:27;;;;;;;143.32;127.93;;;;;;;1.93;100.00;101306.09;5020007;28;20068;-80
2022/03/08 10:48:55;;;;;;;124.82;105.50;;;;;;;1.86;100.00;101302.34;5018009;28;20042;-79
2022/03/08 10:51:30;;;;;;;127.38;105.78;;;;;;;1.89;100.00;101307.31;5018607;28;20364;-80
2022/03/08 10:54:11;;;;;;;128.13;106.68;;;;;;;1.86;100.00;101304.16;5019424;28;20054;-78
2022/03/08 10:56:43;;;;;;;138.15;114.82;;;;;;;2.02;100.00;101296.59;5017713;28;20097;-79
2022/03/08 10:59:11;;;;;;;133.85;114.78;;;;;;;1.95;100.00;101298.09;5018492;28;20053;-80